sensor_id;sensor_type;location;lat;lon;timestamp;pressure;altitude;pressure_sealevel;temperature;humidity
30021;BME280;16861;52.294;7.760;2024-01-30T00:01:53;100914.25;;;9.96;68.10
30021;BME280;16861;52.294;7.760;2024-01-30T00:04:20;100919.56;;;9.94;68.44
30021;BME280;16861;52.294;7.760;2024-01-30T00:06:46;100921.41;;;9.92;68.41
30021;BME280;16861;52.294;7.760;2024-01-30T00:09:13;100917.13;;;9.89;68.34
30021;BME280;16861;52.294;7.760;2024-01-30T00:11:40;100914.53;;;9.88;68.66
30021;BME280;16861;52.294;7.760;2024-01-30T00:14:06;100910.19;;;9.87;68.92
30021;BME280;16861;52.294;7.760;2024-01-30T00:16:33;100912.88;;;9.85;68.76
30021;BME280;16861;52.294;7.760;2024-01-30T00:19:00;100915.56;;;9.84;68.90
30021;BME280;16861;52.294;7.760;2024-01-30T00:21:28;100914.63;;;9.85;69.24
30021;BME280;16861;52.294;7.760;2024-01-30T00:23:55;100919.09;;;9.83;69.19
30021;BME280;16861;52.294;7.760;2024-01-30T00:26:21;100905.03;;;9.84;69.17
30021;BME280;16861;52.294;7.760;2024-01-30T00:28:48;100903.34;;;9.83;69.15
30021;BME280;16861;52.294;7.760;2024-01-30T00:31:15;100904.22;;;9.82;69.08
30021;BME280;16861;52.294;7.760;2024-01-30T00:33:42;100914.81;;;9.80;69.25
30021;BME280;16861;52.294;7.760;2024-01-30T00:36:09;100900.81;;;9.80;69.29
30021;BME280;16861;52.294;7.760;2024-01-30T00:38:36;100904.31;;;9.80;69.39
30021;BME280;16861;52.294;7.760;2024-01-30T00:41:02;100904.34;;;9.78;69.63
30021;BME280;16861;52.294;7.760;2024-01-30T00:43:29;100899.09;;;9.78;69.38
30021;BME280;16861;52.294;7.760;2024-01-30T00:45:55;100886.78;;;9.79;69.55
30021;BME280;16861;52.294;7.760;2024-01-30T00:48:22;100887.75;;;9.76;69.64
30021;BME280;16861;52.294;7.760;2024-01-30T00:50:49;100883.38;;;9.77;69.64
30021;BME280;16861;52.294;7.760;2024-01-30T00:53:16;100890.38;;;9.76;69.75
30021;BME280;16861;52.294;7.760;2024-01-30T00:55:43;100881.56;;;9.77;69.75
30021;BME280;16861;52.294;7.760;2024-01-30T00:58:09;100884.28;;;9.76;69.89
30021;BME280;16861;52.294;7.760;2024-01-30T01:00:36;100886.03;;;9.75;69.77
30021;BME280;16861;52.294;7.760;2024-01-30T01:03:03;100881.66;;;9.76;69.93
30021;BME280;16861;52.294;7.760;2024-01-30T01:05:30;100889.53;;;9.76;69.83
30021;BME280;16861;52.294;7.760;2024-01-30T01:07:57;100890.38;;;9.76;69.84
30021;BME280;16861;52.294;7.760;2024-01-30T01:10:23;100881.66;;;9.76;69.81
30021;BME280;16861;52.294;7.760;2024-01-30T01:12:50;100886.91;;;9.76;69.99
30021;BME280;16861;52.294;7.760;2024-01-30T01:15:17;100886.03;;;9.75;70.08
30021;BME280;16861;52.294;7.760;2024-01-30T01:17:44;100884.34;;;9.74;69.95
30021;BME280;16861;52.294;7.760;2024-01-30T01:20:11;100884.34;;;9.74;70.04
30021;BME280;16861;52.294;7.760;2024-01-30T01:22:38;100881.72;;;9.74;69.88
30021;BME280;16861;52.294;7.760;2024-01-30T01:25:08;100878.25;;;9.72;69.99
30021;BME280;16861;52.294;7.760;2024-01-30T01:27:35;100890.44;;;9.75;70.14
30021;BME280;16861;52.294;7.760;2024-01-30T01:30:09;100884.38;;;9.73;70.27
30021;BME280;16861;52.294;7.760;2024-01-30T01:32:36;100883.41;;;9.75;70.44
30021;BME280;16861;52.294;7.760;2024-01-30T01:35:03;100881.72;;;9.74;70.57
30021;BME280;16861;52.294;7.760;2024-01-30T01:37:32;100883.47;;;9.74;70.88
30021;BME280;16861;52.294;7.760;2024-01-30T01:39:59;100878.09;;;9.77;70.87
30021;BME280;16861;52.294;7.760;2024-01-30T01:42:26;100884.16;;;9.79;70.95
30021;BME280;16861;52.294;7.760;2024-01-30T01:44:53;100874.41;;;9.83;70.70
30021;BME280;16861;52.294;7.760;2024-01-30T01:47:20;100872.63;;;9.83;70.70
30021;BME280;16861;52.294;7.760;2024-01-30T01:49:47;100869.00;;;9.86;70.63
30021;BME280;16861;52.294;7.760;2024-01-30T01:52:14;100862.88;;;9.87;70.48
30021;BME280;16861;52.294;7.760;2024-01-30T01:54:41;100859.31;;;9.88;70.55
30021;BME280;16861;52.294;7.760;2024-01-30T01:57:08;100861.88;;;9.89;70.44
30021;BME280;16861;52.294;7.760;2024-01-30T01:59:34;100862.72;;;9.90;70.53
30021;BME280;16861;52.294;7.760;2024-01-30T02:02:02;100856.63;;;9.89;70.48
30021;BME280;16861;52.294;7.760;2024-01-30T02:04:30;100864.56;;;9.88;70.53
30021;BME280;16861;52.294;7.760;2024-01-30T02:06:56;100861.88;;;9.89;70.61
30021;BME280;16861;52.294;7.760;2024-01-30T02:09:23;100859.31;;;9.88;70.68
30021;BME280;16861;52.294;7.760;2024-01-30T02:11:50;100847.00;;;9.88;70.53
30021;BME280;16861;52.294;7.760;2024-01-30T02:14:17;100849.63;;;9.88;70.39
30021;BME280;16861;52.294;7.760;2024-01-30T02:16:44;100852.16;;;9.91;70.69
30021;BME280;16861;52.294;7.760;2024-01-30T02:19:10;100848.69;;;9.91;70.62
30021;BME280;16861;52.294;7.760;2024-01-30T02:21:38;100848.69;;;9.91;70.74
30021;BME280;16861;52.294;7.760;2024-01-30T02:24:05;100851.22;;;9.93;70.57
30021;BME280;16861;52.294;7.760;2024-01-30T02:26:32;100845.09;;;9.94;70.55
30021;BME280;16861;52.294;7.760;2024-01-30T02:28:58;100850.34;;;9.94;70.65
30021;BME280;16861;52.294;7.760;2024-01-30T02:31:25;100848.56;;;9.94;70.66
30021;BME280;16861;52.294;7.760;2024-01-30T02:33:52;100835.41;;;9.94;70.57
30021;BME280;16861;52.294;7.760;2024-01-30T02:36:19;100832.78;;;9.94;70.52
30021;BME280;16861;52.294;7.760;2024-01-30T02:38:46;100837.16;;;9.95;70.66
30021;BME280;16861;52.294;7.760;2024-01-30T02:41:13;100839.78;;;9.95;70.47
30021;BME280;16861;52.294;7.760;2024-01-30T02:43:39;100832.78;;;9.94;70.83
30021;BME280;16861;52.294;7.760;2024-01-30T02:46:06;100832.78;;;9.94;70.43
30021;BME280;16861;52.294;7.760;2024-01-30T02:48:33;100836.28;;;9.95;70.46
30021;BME280;16861;52.294;7.760;2024-01-30T02:50:59;100819.63;;;9.94;70.31
30021;BME280;16861;52.294;7.760;2024-01-30T02:53:26;100822.25;;;9.94;70.29
30021;BME280;16861;52.294;7.760;2024-01-30T02:55:52;100817.88;;;9.95;70.41
30021;BME280;16861;52.294;7.760;2024-01-30T02:58:19;100824.03;;;9.94;70.37
30021;BME280;16861;52.294;7.760;2024-01-30T03:00:45;100818.84;;;9.92;70.26
30021;BME280;16861;52.294;7.760;2024-01-30T03:03:12;100817.13;;;9.91;70.54
30021;BME280;16861;52.294;7.760;2024-01-30T03:05:39;100810.13;;;9.90;70.29
30021;BME280;16861;52.294;7.760;2024-01-30T03:08:05;100805.78;;;9.89;70.20
30021;BME280;16861;52.294;7.760;2024-01-30T03:10:32;100804.88;;;9.90;70.23
30021;BME280;16861;52.294;7.760;2024-01-30T03:12:59;100809.34;;;9.88;70.10
30021;BME280;16861;52.294;7.760;2024-01-30T03:15:25;100805.00;;;9.87;70.19
30021;BME280;16861;52.294;7.760;2024-01-30T03:17:53;100795.38;;;9.86;70.30
30021;BME280;16861;52.294;7.760;2024-01-30T03:20:20;100797.16;;;9.85;70.17
30021;BME280;16861;52.294;7.760;2024-01-30T03:22:46;100789.34;;;9.84;70.09
30021;BME280;16861;52.294;7.760;2024-01-30T03:25:13;100792.00;;;9.82;70.04
30021;BME280;16861;52.294;7.760;2024-01-30T03:27:39;100789.44;;;9.81;70.17
30021;BME280;16861;52.294;7.760;2024-01-30T03:30:06;100787.72;;;9.80;70.10
30021;BME280;16861;52.294;7.760;2024-01-30T03:32:33;100786.91;;;9.77;70.01
30021;BME280;16861;52.294;7.760;2024-01-30T03:35:00;100790.50;;;9.75;70.21
30021;BME280;16861;52.294;7.760;2024-01-30T03:37:27;100783.56;;;9.74;70.30
30021;BME280;16861;52.294;7.760;2024-01-30T03:39:53;100777.56;;;9.70;70.17
30021;BME280;16861;52.294;7.760;2024-01-30T03:42:20;100774.97;;;9.69;70.32
30021;BME280;16861;52.294;7.760;2024-01-30T03:44:47;100781.94;;;9.70;70.32
30021;BME280;16861;52.294;7.760;2024-01-30T03:47:13;100774.13;;;9.68;70.39
30021;BME280;16861;52.294;7.760;2024-01-30T03:49:40;100776.75;;;9.68;70.24
30021;BME280;16861;52.294;7.760;2024-01-30T03:52:07;100768.84;;;9.68;70.30
30021;BME280;16861;52.294;7.760;2024-01-30T03:54:33;100772.41;;;9.67;70.50
30021;BME280;16861;52.294;7.760;2024-01-30T03:57:00;100769.78;;;9.67;70.77
30021;BME280;16861;52.294;7.760;2024-01-30T03:59:27;100771.47;;;9.68;70.45
30021;BME280;16861;52.294;7.760;2024-01-30T04:01:54;100775.94;;;9.66;70.54
30021;BME280;16861;52.294;7.760;2024-01-30T04:04:21;100769.81;;;9.65;70.43
30021;BME280;16861;52.294;7.760;2024-01-30T04:06:48;100780.34;;;9.65;70.46
30021;BME280;16861;52.294;7.760;2024-01-30T04:09:14;100774.25;;;9.65;70.43
30021;BME280;16861;52.294;7.760;2024-01-30T04:11:41;100768.13;;;9.64;70.78
30021;BME280;16861;52.294;7.760;2024-01-30T04:14:08;100771.63;;;9.65;70.59
30021;BME280;16861;52.294;7.760;2024-01-30T04:16:35;100768.06;;;9.66;70.63
30021;BME280;16861;52.294;7.760;2024-01-30T04:19:02;100768.06;;;9.66;70.43
30021;BME280;16861;52.294;7.760;2024-01-30T04:21:29;100766.34;;;9.65;70.61
30021;BME280;16861;52.294;7.760;2024-01-30T04:23:55;100769.81;;;9.65;70.53
30021;BME280;16861;52.294;7.760;2024-01-30T04:26:24;100769.00;;;9.65;70.52
30021;BME280;16861;52.294;7.760;2024-01-30T04:28:50;100771.66;;;9.63;70.52
30021;BME280;16861;52.294;7.760;2024-01-30T04:31:17;100764.72;;;9.62;70.48
30021;BME280;16861;52.294;7.760;2024-01-30T04:33:44;100766.47;;;9.62;70.58
30021;BME280;16861;52.294;7.760;2024-01-30T04:36:10;100758.56;;;9.62;70.74
30021;BME280;16861;52.294;7.760;2024-01-30T04:38:40;100756.81;;;9.62;70.65
30021;BME280;16861;52.294;7.760;2024-01-30T04:41:07;100762.06;;;9.62;70.77
30021;BME280;16861;52.294;7.760;2024-01-30T04:43:33;100760.28;;;9.63;70.52
30021;BME280;16861;52.294;7.760;2024-01-30T04:46:00;100749.78;;;9.63;70.80
30021;BME280;16861;52.294;7.760;2024-01-30T04:48:27;100750.69;;;9.62;70.66
30021;BME280;16861;52.294;7.760;2024-01-30T04:50:53;100760.28;;;9.63;70.76
30021;BME280;16861;52.294;7.760;2024-01-30T04:53:20;100750.63;;;9.63;70.80
30021;BME280;16861;52.294;7.760;2024-01-30T04:55:47;100755.03;;;9.63;70.81
30021;BME280;16861;52.294;7.760;2024-01-30T04:58:13;100744.50;;;9.63;71.13
30021;BME280;16861;52.294;7.760;2024-01-30T05:00:40;100741.84;;;9.64;71.11
30021;BME280;16861;52.294;7.760;2024-01-30T05:03:07;100737.44;;;9.65;71.00
30021;BME280;16861;52.294;7.760;2024-01-30T05:05:34;100734.69;;;9.68;71.12
30021;BME280;16861;52.294;7.760;2024-01-30T05:08:00;100732.91;;;9.69;70.90
30021;BME280;16861;52.294;7.760;2024-01-30T05:10:27;100736.22;;;9.74;71.10
30021;BME280;16861;52.294;7.760;2024-01-30T05:12:55;100746.69;;;9.75;70.90
30021;BME280;16861;52.294;7.760;2024-01-30T05:15:22;100746.63;;;9.77;70.95
30021;BME280;16861;52.294;7.760;2024-01-30T05:17:48;100754.47;;;9.78;70.82
30021;BME280;16861;52.294;7.760;2024-01-30T05:20:15;100750.88;;;9.81;70.90
30021;BME280;16861;52.294;7.760;2024-01-30T05:22:41;100752.47;;;9.85;70.91
30021;BME280;16861;52.294;7.760;2024-01-30T05:25:12;100755.03;;;9.87;70.96
30021;BME280;16861;52.294;7.760;2024-01-30T05:27:39;100749.63;;;9.90;70.99
30021;BME280;16861;52.294;7.760;2024-01-30T05:30:06;100748.66;;;9.93;70.79
30021;BME280;16861;52.294;7.760;2024-01-30T05:32:33;100758.28;;;9.94;70.61
30021;BME280;16861;52.294;7.760;2024-01-30T05:35:00;100755.59;;;9.95;70.75
30021;BME280;16861;52.294;7.760;2024-01-30T05:37:26;100750.19;;;9.98;70.84
30021;BME280;16861;52.294;7.760;2024-01-30T05:39:53;100751.06;;;9.99;70.72
30021;BME280;16861;52.294;7.760;2024-01-30T05:42:20;100746.53;;;10.02;70.71
30021;BME280;16861;52.294;7.760;2024-01-30T05:44:46;100742.16;;;10.03;70.52
30021;BME280;16861;52.294;7.760;2024-01-30T05:47:13;100746.50;;;10.04;70.37
30021;BME280;16861;52.294;7.760;2024-01-30T05:49:39;100747.34;;;10.04;70.51
30021;BME280;16861;52.294;7.760;2024-01-30T05:52:05;100738.59;;;10.04;70.53
30021;BME280;16861;52.294;7.760;2024-01-30T05:54:32;100736.78;;;10.06;70.34
30021;BME280;16861;52.294;7.760;2024-01-30T05:56:59;100736.78;;;10.06;70.38
30021;BME280;16861;52.294;7.760;2024-01-30T05:59:25;100734.16;;;10.06;70.05
30021;BME280;16861;52.294;7.760;2024-01-30T06:01:53;100739.31;;;10.08;69.98
30021;BME280;16861;52.294;7.760;2024-01-30T06:04:20;100740.25;;;10.07;70.16
30021;BME280;16861;52.294;7.760;2024-01-30T06:06:47;100735.91;;;10.06;70.21
30021;BME280;16861;52.294;7.760;2024-01-30T06:09:13;100734.19;;;10.04;70.06
30021;BME280;16861;52.294;7.760;2024-01-30T06:11:40;100736.03;;;10.02;70.23
30021;BME280;16861;52.294;7.760;2024-01-30T06:14:07;100736.03;;;10.02;70.38
30021;BME280;16861;52.294;7.760;2024-01-30T06:16:33;100739.56;;;10.01;70.28
30021;BME280;16861;52.294;7.760;2024-01-30T06:19:00;100743.91;;;10.02;70.42
30021;BME280;16861;52.294;7.760;2024-01-30T06:21:27;100738.66;;;10.02;70.32
30021;BME280;16861;52.294;7.760;2024-01-30T06:23:53;100743.00;;;10.03;70.39
30021;BME280;16861;52.294;7.760;2024-01-30T06:26:20;100737.72;;;10.03;70.53
30021;BME280;16861;52.294;7.760;2024-01-30T06:28:46;100736.84;;;10.04;70.50
30021;BME280;16861;52.294;7.760;2024-01-30T06:31:12;100729.78;;;10.05;70.43
30021;BME280;16861;52.294;7.760;2024-01-30T06:33:39;100737.63;;;10.07;70.44
30021;BME280;16861;52.294;7.760;2024-01-30T06:36:08;100733.22;;;10.07;70.61
30021;BME280;16861;52.294;7.760;2024-01-30T06:38:35;100732.31;;;10.08;70.51
30021;BME280;16861;52.294;7.760;2024-01-30T06:41:01;100734.88;;;10.10;70.57
30021;BME280;16861;52.294;7.760;2024-01-30T06:43:28;100726.94;;;10.11;70.32
30021;BME280;16861;52.294;7.760;2024-01-30T06:45:54;100729.56;;;10.11;70.21
30021;BME280;16861;52.294;7.760;2024-01-30T06:48:21;100726.94;;;10.11;70.20
30021;BME280;16861;52.294;7.760;2024-01-30T06:50:48;100730.41;;;10.12;70.12
30021;BME280;16861;52.294;7.760;2024-01-30T06:53:15;100727.75;;;10.12;70.13
30021;BME280;16861;52.294;7.760;2024-01-30T06:55:42;100732.19;;;10.11;70.01
30021;BME280;16861;52.294;7.760;2024-01-30T06:58:08;100744.38;;;10.14;70.31
30021;BME280;16861;52.294;7.760;2024-01-30T07:00:35;100740.09;;;10.11;70.17
30021;BME280;16861;52.294;7.760;2024-01-30T07:03:02;100737.44;;;10.11;70.04
30021;BME280;16861;52.294;7.760;2024-01-30T07:05:29;100733.03;;;10.12;70.25
30021;BME280;16861;52.294;7.760;2024-01-30T07:07:55;100730.41;;;10.12;70.07
30021;BME280;16861;52.294;7.760;2024-01-30T07:10:22;100730.44;;;10.10;70.31
30021;BME280;16861;52.294;7.760;2024-01-30T07:12:49;100729.56;;;10.11;70.19
30021;BME280;16861;52.294;7.760;2024-01-30T07:15:15;100734.88;;;10.10;70.13
30021;BME280;16861;52.294;7.760;2024-01-30T07:17:44;100737.50;;;10.10;70.12
30021;BME280;16861;52.294;7.760;2024-01-30T07:20:11;100730.44;;;10.10;70.34
30021;BME280;16861;52.294;7.760;2024-01-30T07:22:43;100728.69;;;10.11;70.20
30021;BME280;16861;52.294;7.760;2024-01-30T07:25:10;100724.25;;;10.13;70.30
30021;BME280;16861;52.294;7.760;2024-01-30T07:27:36;100730.41;;;10.12;70.50
30021;BME280;16861;52.294;7.760;2024-01-30T07:30:03;100740.91;;;10.12;70.39
30021;BME280;16861;52.294;7.760;2024-01-30T07:32:30;100727.75;;;10.12;70.35
30021;BME280;16861;52.294;7.760;2024-01-30T07:34:56;100724.25;;;10.13;70.25
30021;BME280;16861;52.294;7.760;2024-01-30T07:37:34;100723.31;;;10.14;70.23
30021;BME280;16861;52.294;7.760;2024-01-30T07:40:03;100723.25;;;10.15;70.24
30021;BME280;16861;52.294;7.760;2024-01-30T07:42:30;100724.09;;;10.16;70.43
30021;BME280;16861;52.294;7.760;2024-01-30T07:44:57;100720.63;;;10.15;70.25
30021;BME280;16861;52.294;7.760;2024-01-30T07:47:23;100729.34;;;10.16;70.44
30021;BME280;16861;52.294;7.760;2024-01-30T07:49:50;100724.09;;;10.16;70.33
30021;BME280;16861;52.294;7.760;2024-01-30T07:52:17;100724.03;;;10.17;70.12
30021;BME280;16861;52.294;7.760;2024-01-30T07:54:44;100721.47;;;10.16;70.25
30021;BME280;16861;52.294;7.760;2024-01-30T07:57:10;100732.81;;;10.18;70.24
30021;BME280;16861;52.294;7.760;2024-01-30T07:59:37;100732.81;;;10.18;70.32
30021;BME280;16861;52.294;7.760;2024-01-30T08:02:03;100739.00;;;10.17;70.26
30021;BME280;16861;52.294;7.760;2024-01-30T08:04:30;100737.13;;;10.19;70.38
30021;BME280;16861;52.294;7.760;2024-01-30T08:06:57;100732.66;;;10.21;70.36
30021;BME280;16861;52.294;7.760;2024-01-30T08:09:23;100742.28;;;10.22;70.31
30021;BME280;16861;52.294;7.760;2024-01-30T08:11:50;100744.00;;;10.23;70.54
30021;BME280;16861;52.294;7.760;2024-01-30T08:14:16;100750.13;;;10.24;70.07
30021;BME280;16861;52.294;7.760;2024-01-30T08:16:43;100744.72;;;10.27;70.45
30021;BME280;16861;52.294;7.760;2024-01-30T08:19:09;100752.63;;;10.27;70.34
30021;BME280;16861;52.294;7.760;2024-01-30T08:21:36;100749.00;;;10.29;70.46
30021;BME280;16861;52.294;7.760;2024-01-30T08:24:05;100755.03;;;10.33;70.53
30021;BME280;16861;52.294;7.760;2024-01-30T08:26:33;100745.31;;;10.34;70.42
30021;BME280;16861;52.294;7.760;2024-01-30T08:29:00;100743.50;;;10.36;70.28
30021;BME280;16861;52.294;7.760;2024-01-30T08:31:27;100744.34;;;10.36;70.08
30021;BME280;16861;52.294;7.760;2024-01-30T08:33:54;100740.81;;;10.37;70.25
30021;BME280;16861;52.294;7.760;2024-01-30T08:36:21;100739.88;;;10.38;70.26
30021;BME280;16861;52.294;7.760;2024-01-30T08:38:47;100743.41;;;10.39;70.40
30021;BME280;16861;52.294;7.760;2024-01-30T08:41:14;100746.81;;;10.41;70.20
30021;BME280;16861;52.294;7.760;2024-01-30T08:43:41;100740.53;;;10.45;70.39
30021;BME280;16861;52.294;7.760;2024-01-30T08:46:07;100740.47;;;10.47;70.39
30021;BME280;16861;52.294;7.760;2024-01-30T08:48:35;100736.03;;;10.47;70.23
30021;BME280;16861;52.294;7.760;2024-01-30T08:51:02;100743.78;;;10.52;70.33
30021;BME280;16861;52.294;7.760;2024-01-30T08:53:29;100732.25;;;10.54;70.42
30021;BME280;16861;52.294;7.760;2024-01-30T08:55:55;100745.28;;;10.58;70.54
30021;BME280;16861;52.294;7.760;2024-01-30T08:58:22;100743.31;;;10.63;70.53
30021;BME280;16861;52.294;7.760;2024-01-30T09:00:48;100743.22;;;10.66;70.44
30021;BME280;16861;52.294;7.760;2024-01-30T09:03:15;100755.31;;;10.70;70.28
30021;BME280;16861;52.294;7.760;2024-01-30T09:05:42;100759.41;;;10.77;70.42
30021;BME280;16861;52.294;7.760;2024-01-30T09:08:08;100746.97;;;10.81;70.26
30021;BME280;16861;52.294;7.760;2024-01-30T09:10:35;100759.03;;;10.87;69.93
30021;BME280;16861;52.294;7.760;2024-01-30T09:13:01;100757.06;;;10.92;70.01
30021;BME280;16861;52.294;7.760;2024-01-30T09:15:28;100753.44;;;10.94;69.99
30021;BME280;16861;52.294;7.760;2024-01-30T09:17:54;100751.53;;;10.98;69.96
30021;BME280;16861;52.294;7.760;2024-01-30T09:20:21;100754.03;;;11.01;69.88
30021;BME280;16861;52.294;7.760;2024-01-30T09:22:48;100755.69;;;11.04;69.52
30021;BME280;16861;52.294;7.760;2024-01-30T09:25:15;100740.59;;;11.07;69.36
30021;BME280;16861;52.294;7.760;2024-01-30T09:27:42;100746.66;;;11.10;69.11
30021;BME280;16861;52.294;7.760;2024-01-30T09:30:09;100752.69;;;11.12;69.37
30021;BME280;16861;52.294;7.760;2024-01-30T09:32:35;100758.78;;;11.14;69.21
30021;BME280;16861;52.294;7.760;2024-01-30T09:35:02;100756.09;;;11.15;69.22
30021;BME280;16861;52.294;7.760;2024-01-30T09:37:28;100756.09;;;11.15;69.26
30021;BME280;16861;52.294;7.760;2024-01-30T09:39:55;100754.28;;;11.16;68.95
30021;BME280;16861;52.294;7.760;2024-01-30T09:42:28;100755.97;;;11.17;68.79
30021;BME280;16861;52.294;7.760;2024-01-30T09:44:58;100749.81;;;11.18;69.16
30021;BME280;16861;52.294;7.760;2024-01-30T09:47:26;100751.47;;;11.20;69.41
30021;BME280;16861;52.294;7.760;2024-01-30T09:49:52;100755.75;;;11.23;69.45
30021;BME280;16861;52.294;7.760;2024-01-30T09:52:19;100762.72;;;11.24;69.23
30021;BME280;16861;52.294;7.760;2024-01-30T09:54:47;100765.28;;;11.26;69.12
30021;BME280;16861;52.294;7.760;2024-01-30T09:57:15;100759.88;;;11.29;69.52
30021;BME280;16861;52.294;7.760;2024-01-30T09:59:42;100755.31;;;11.32;69.58
30021;BME280;16861;52.294;7.760;2024-01-30T10:02:10;100756.03;;;11.36;69.55
30021;BME280;16861;52.294;7.760;2024-01-30T10:04:36;100757.63;;;11.40;69.58
30021;BME280;16861;52.294;7.760;2024-01-30T10:07:03;100770.59;;;11.45;69.69
30021;BME280;16861;52.294;7.760;2024-01-30T10:09:33;100764.41;;;11.46;69.06
30021;BME280;16861;52.294;7.760;2024-01-30T10:12:01;100766.91;;;11.49;69.38
30021;BME280;16861;52.294;7.760;2024-01-30T10:14:28;100773.69;;;11.55;69.25
30021;BME280;16861;52.294;7.760;2024-01-30T10:16:55;100765.69;;;11.56;69.29
30021;BME280;16861;52.294;7.760;2024-01-30T10:19:21;100768.19;;;11.59;69.44
30021;BME280;16861;52.294;7.760;2024-01-30T10:21:48;100768.13;;;11.61;69.36
30021;BME280;16861;52.294;7.760;2024-01-30T10:24:15;100766.22;;;11.65;69.09
30021;BME280;16861;52.294;7.760;2024-01-30T10:26:46;100760.03;;;11.66;68.57
30021;BME280;16861;52.294;7.760;2024-01-30T10:29:13;100763.38;;;11.69;69.09
30021;BME280;16861;52.294;7.760;2024-01-30T10:31:39;100760.66;;;11.71;69.02
30021;BME280;16861;52.294;7.760;2024-01-30T10:34:06;100762.38;;;11.72;69.10
30021;BME280;16861;52.294;7.760;2024-01-30T10:36:46;100775.50;;;11.73;68.83
30021;BME280;16861;52.294;7.760;2024-01-30T10:39:17;100781.63;;;11.74;68.87
30021;BME280;16861;52.294;7.760;2024-01-30T10:41:44;100778.91;;;11.76;69.02
30021;BME280;16861;52.294;7.760;2024-01-30T10:44:11;100778.00;;;11.77;69.19
30021;BME280;16861;52.294;7.760;2024-01-30T10:46:38;100772.63;;;11.78;69.13
30021;BME280;16861;52.294;7.760;2024-01-30T10:49:07;100776.06;;;11.80;69.17
30021;BME280;16861;52.294;7.760;2024-01-30T10:51:34;100776.84;;;11.82;68.90
30021;BME280;16861;52.294;7.760;2024-01-30T10:54:03;100774.19;;;11.82;68.88
30021;BME280;16861;52.294;7.760;2024-01-30T10:56:32;100770.59;;;11.85;69.09
30021;BME280;16861;52.294;7.760;2024-01-30T10:59:00;100771.31;;;11.89;69.30
30021;BME280;16861;52.294;7.760;2024-01-30T11:01:27;100772.00;;;11.92;69.28
30021;BME280;16861;52.294;7.760;2024-01-30T11:03:55;100774.50;;;11.95;69.42
30021;BME280;16861;52.294;7.760;2024-01-30T11:06:25;100780.50;;;11.99;69.42
30021;BME280;16861;52.294;7.760;2024-01-30T11:09:02;100771.63;;;12.00;68.72
30021;BME280;16861;52.294;7.760;2024-01-30T11:14:16;100777.38;;;12.10;69.70
30021;BME280;16861;52.294;7.760;2024-01-30T11:16:42;100776.31;;;12.14;69.59
30021;BME280;16861;52.294;7.760;2024-01-30T11:19:12;100777.03;;;12.18;69.48
30021;BME280;16861;52.294;7.760;2024-01-30T11:21:42;100776.09;;;12.19;68.74
30021;BME280;16861;52.294;7.760;2024-01-30T11:24:09;100782.00;;;12.24;69.44
30021;BME280;16861;52.294;7.760;2024-01-30T11:26:35;100775.72;;;12.27;69.57
30021;BME280;16861;52.294;7.760;2024-01-30T11:29:07;100780.16;;;12.26;68.84
30021;BME280;16861;52.294;7.760;2024-01-30T11:31:34;100780.69;;;12.33;69.62
30021;BME280;16861;52.294;7.760;2024-01-30T11:34:01;100784.84;;;12.38;69.85
30021;BME280;16861;52.294;7.760;2024-01-30T11:36:28;100777.47;;;12.45;69.62
30021;BME280;16861;52.294;7.760;2024-01-30T11:38:54;100775.50;;;12.50;69.73
30021;BME280;16861;52.294;7.760;2024-01-30T11:41:21;100780.53;;;12.55;69.62
30021;BME280;16861;52.294;7.760;2024-01-30T11:43:52;100772.53;;;12.57;68.36
30021;BME280;16861;52.294;7.760;2024-01-30T11:46:19;100781.88;;;12.64;69.61
30021;BME280;16861;52.294;7.760;2024-01-30T11:48:46;100772.00;;;12.68;69.53
30021;BME280;16861;52.294;7.760;2024-01-30T11:51:13;100770.00;;;12.73;69.58
30021;BME280;16861;52.294;7.760;2024-01-30T11:53:41;100774.19;;;12.77;69.61
30021;BME280;16861;52.294;7.760;2024-01-30T11:56:08;100772.16;;;12.82;69.69
30021;BME280;16861;52.294;7.760;2024-01-30T11:58:35;100775.53;;;12.86;69.70
30021;BME280;16861;52.294;7.760;2024-01-30T12:01:01;100774.50;;;12.88;69.63
30021;BME280;16861;52.294;7.760;2024-01-30T12:03:28;100771.63;;;12.93;69.50
30021;BME280;16861;52.294;7.760;2024-01-30T12:05:58;100774.13;;;12.96;68.98
30021;BME280;16861;52.294;7.760;2024-01-30T12:08:26;100768.69;;;12.99;69.71
30021;BME280;16861;52.294;7.760;2024-01-30T12:10:57;100773.03;;;13.00;68.90
30021;BME280;16861;52.294;7.760;2024-01-30T12:13:29;100771.06;;;13.04;69.33
30021;BME280;16861;52.294;7.760;2024-01-30T12:15:59;100758.72;;;13.05;69.15
30021;BME280;16861;52.294;7.760;2024-01-30T12:18:27;100759.59;;;13.05;69.41
30021;BME280;16861;52.294;7.760;2024-01-30T12:20:58;100761.38;;;13.05;68.85
30021;BME280;16861;52.294;7.760;2024-01-30T12:23:29;100758.66;;;13.06;69.21
30021;BME280;16861;52.294;7.760;2024-01-30T12:25:58;100761.13;;;13.09;69.80
30021;BME280;16861;52.294;7.760;2024-01-30T12:28:25;100769.84;;;13.11;69.94
30021;BME280;16861;52.294;7.760;2024-01-30T12:31:04;100767.34;;;13.08;68.99
30021;BME280;16861;52.294;7.760;2024-01-30T12:33:30;100778.44;;;13.15;70.00
30021;BME280;16861;52.294;7.760;2024-01-30T12:36:01;100764.31;;;13.16;70.06
30021;BME280;16861;52.294;7.760;2024-01-30T12:38:29;100772.00;;;13.21;70.10
30021;BME280;16861;52.294;7.760;2024-01-30T12:40:56;100778.09;;;13.23;70.20
30021;BME280;16861;52.294;7.760;2024-01-30T12:43:24;100780.63;;;13.24;70.29
30021;BME280;16861;52.294;7.760;2024-01-30T12:46:03;100768.94;;;13.28;70.32
30021;BME280;16861;52.294;7.760;2024-01-30T12:48:30;100760.03;;;13.31;70.37
30021;BME280;16861;52.294;7.760;2024-01-30T12:50:57;100765.31;;;13.31;70.25
30021;BME280;16861;52.294;7.760;2024-01-30T12:53:24;100769.59;;;13.34;70.28
30021;BME280;16861;52.294;7.760;2024-01-30T12:55:50;100761.56;;;13.35;70.09
30021;BME280;16861;52.294;7.760;2024-01-30T12:58:18;100764.19;;;13.35;70.00